Main page
METAR-TAF:

METAR-TAF

Airports :

Mariscal Sucre International Airport

Quito, Ecuador

latitude: 0-06-48S, longitude: 78-21-31W, elevation: 2400 m

Current weather observation

The report was made 20 minutes ago, at 12:00 UTC
Wind 3 kt from the East/Southeast, varying between East and South/Southwest
Temperature 7°C
Humidity 81%
Pressure 1028 hPa
Visibility 10 km or more
no clouds below 1500 m and no cumulonimbus

METAR: SEQM 171200Z 12003KT 090V200 CAVOK 07/04 Q1028 NOSIG RMK A3037

Time: 07:20 (12:20 UTC)

Forecast

The report was made 1 hour and 5 minutes ago, at 11:15 UTC
Forecast valid from 17 at 12 UTC to 18 at 12 UTC
Wind 3 kt from variable directions
Visibility 10 km or more
Few clouds at a height of 4000 ft
Becoming
from 17 at 17 UTC to 17 at 19 UTC
Wind 14 kt from the South
Becoming
from 18 at 00 UTC to 18 at 02 UTC
Wind 4 kt from the East/Southeast
Scattered clouds at a height of 3000 ft

TAF: SEQM 171115Z 1712/1812 VRB03KT 9999 FEW040 BECMG 1717/1719 18014KT BECMG 1800/1802 11004KT SCT030 TX28/1719Z TN07/1811Z

Weather observations and forecasts of more than 4000 airports (METAR and TAF reports).

The available stations are represented by yellow and red dots on the map.

Hover mouse over dot to see the name of the station.

Then click to see weather observations and forecasts.

To change the map : click on the green buttons with a black cross to zoom in, on the green button with a dash to zoom out, or on the green arrows for adjacent maps.


METAR-TAF: